createdAt,value
2018-07-24T04:58:10.181Z,91.90
2018-07-24T07:07:31.198Z,72.40
2018-07-24T07:08:05.065Z,74.20
2018-07-24T07:08:39.349Z,75.20
2018-07-24T07:09:12.532Z,75.70
2018-07-24T07:09:51.964Z,71.80
2018-07-24T07:10:30.416Z,71.30
2018-07-24T07:11:03.461Z,75.40
2018-07-24T07:11:36.115Z,75.00
2018-07-24T07:12:09.143Z,71.90
2018-07-24T07:12:41.676Z,70.90
2018-07-24T07:13:14.262Z,70.90
2018-07-24T07:13:46.753Z,73.30
2018-07-24T07:14:19.323Z,75.00
2018-07-24T07:14:51.890Z,74.50
2018-07-24T07:15:24.853Z,74.00
2018-07-24T07:15:57.934Z,71.00
2018-07-24T07:16:31.516Z,69.00
2018-07-24T07:17:10.897Z,69.00
2018-07-24T07:17:44.384Z,68.40
2018-07-24T07:18:16.967Z,67.90
2018-07-24T07:18:49.921Z,67.00
2018-07-24T07:19:22.956Z,68.70
2018-07-24T07:19:56.008Z,69.50
2018-07-24T07:20:29.281Z,70.40
2018-07-24T07:21:02.320Z,71.40
2018-07-24T07:21:35.398Z,68.70
2018-07-24T07:22:08.436Z,68.30
2018-07-24T07:22:41.488Z,67.50
2018-07-24T07:23:14.592Z,70.40
2018-07-24T07:23:47.584Z,69.80
2018-07-24T07:24:20.952Z,66.80
2018-07-24T07:24:53.468Z,67.00
2018-07-24T07:25:26.064Z,66.50
2018-07-24T07:25:58.531Z,66.60
2018-07-24T07:26:31.475Z,66.20
2018-07-24T07:27:04.524Z,64.70
2018-07-24T07:27:37.585Z,64.70
2018-07-24T07:28:10.193Z,66.00
2018-07-24T07:28:43.483Z,64.10
2018-07-24T07:29:16.807Z,63.70
2018-07-24T07:29:50.957Z,63.20
2018-07-24T07:30:23.552Z,63.20
2018-07-24T07:30:56.171Z,63.30
2018-07-24T07:31:29.940Z,63.60
2018-07-24T07:32:02.469Z,63.70
2018-07-24T07:32:36.195Z,67.10
2018-07-24T07:33:09.989Z,64.90
2018-07-24T07:33:43.028Z,64.80
2018-07-24T07:34:15.643Z,62.50
2018-07-24T07:34:48.166Z,64.10
2018-07-24T07:35:20.687Z,64.30
2018-07-24T07:35:53.215Z,64.00
2018-07-24T07:36:26.160Z,65.50
2018-07-24T07:37:00.043Z,65.40
2018-07-24T07:37:32.576Z,65.40
2018-07-24T07:38:06.420Z,64.10
2018-07-24T07:38:39.682Z,66.20
2018-07-24T07:39:12.260Z,66.30
2018-07-24T07:39:44.711Z,63.50
2018-07-24T07:40:17.247Z,62.20
2018-07-24T07:40:50.995Z,62.10
2018-07-24T07:41:24.033Z,62.10
2018-07-24T07:41:56.636Z,65.40
2018-07-24T07:42:29.170Z,64.20
2018-07-24T07:43:01.695Z,62.50
2018-07-24T07:43:34.991Z,61.20
2018-07-24T07:44:07.541Z,61.60
2018-07-24T07:44:40.064Z,61.70
2018-07-24T07:45:13.114Z,61.60
2018-07-24T07:45:46.129Z,60.10
2018-07-24T07:46:19.173Z,65.00
2018-07-24T07:47:25.317Z,62.00
2018-07-24T07:48:34.904Z,59.70
2018-07-24T07:49:07.503Z,59.40
2018-07-24T07:49:40.487Z,59.90
2018-07-24T07:50:13.536Z,62.40
2018-07-24T07:50:46.585Z,63.70
2018-07-24T07:51:19.669Z,64.40
2018-07-24T07:51:54.094Z,62.50
2018-07-24T07:52:27.172Z,62.50
2018-07-24T07:53:00.392Z,59.60
2018-07-24T07:53:33.428Z,59.40
2018-07-24T07:54:06.484Z,59.00
2018-07-24T07:54:39.544Z,59.00
2018-07-24T07:55:12.576Z,58.40
2018-07-24T07:55:45.204Z,60.90
2018-07-24T07:56:18.180Z,58.80
2018-07-24T07:56:51.251Z,58.50
2018-07-24T07:57:24.304Z,57.50
2018-07-24T07:57:57.341Z,57.60
2018-07-24T07:58:30.388Z,59.40
2018-07-24T07:59:03.440Z,58.10
2018-07-24T07:59:36.493Z,57.90
2018-07-24T08:00:09.764Z,56.40
2018-07-24T08:00:42.372Z,56.20
2018-07-24T08:01:15.688Z,60.30
2018-07-24T08:01:48.206Z,59.80
2018-07-24T08:02:21.731Z,56.90
2018-07-24T08:02:54.266Z,56.80
2018-07-24T08:03:27.233Z,56.40
2018-07-24T08:04:00.753Z,57.10
2018-07-24T08:04:41.003Z,57.20
2018-07-24T08:05:13.581Z,56.20
2018-07-24T08:05:46.083Z,56.60
2018-07-24T08:06:19.057Z,59.90
2018-07-24T08:06:52.099Z,57.10
2018-07-24T08:07:25.125Z,55.60
2018-07-24T08:07:58.155Z,57.40
2018-07-24T08:08:31.204Z,58.70
2018-07-24T08:09:04.240Z,56.20
2018-07-24T08:09:37.304Z,54.80
2018-07-24T08:10:10.552Z,56.60
2018-07-24T08:10:43.157Z,56.70
2018-07-24T08:11:15.676Z,55.60
2018-07-24T08:11:48.241Z,56.00
2018-07-24T08:12:55.853Z,54.80
2018-07-24T08:13:28.914Z,54.30
2018-07-24T08:14:02.038Z,54.20
2018-07-24T08:14:35.034Z,57.60
2018-07-24T08:15:08.096Z,58.60
2018-07-24T08:15:41.145Z,58.90
2018-07-24T08:16:14.194Z,55.60
2018-07-24T08:16:47.264Z,54.70
2018-07-24T08:17:19.899Z,55.40
2018-07-24T08:17:52.415Z,56.30
2018-07-24T08:18:25.387Z,56.40
2018-07-24T08:18:58.419Z,57.20
2018-07-24T08:19:31.468Z,56.20
2018-07-24T08:20:04.539Z,54.80
2018-07-24T08:20:37.589Z,55.70
2018-07-24T08:21:10.640Z,55.00
2018-07-24T08:21:43.722Z,58.90
2018-07-24T08:22:16.826Z,55.70
2018-07-24T08:22:49.834Z,54.70
2018-07-24T08:23:23.629Z,54.10
2018-07-24T08:23:56.672Z,54.00
2018-07-24T08:24:30.068Z,53.00
2018-07-24T08:25:03.135Z,56.10
2018-07-24T08:25:36.948Z,54.80
2018-07-24T08:26:09.996Z,54.70
2018-07-24T08:26:43.054Z,54.20
2018-07-24T08:27:16.087Z,57.30
2018-07-24T08:27:49.177Z,55.30
2018-07-24T08:28:22.181Z,52.70
2018-07-24T08:28:55.228Z,53.20
2018-07-24T08:29:29.025Z,54.60
2018-07-24T08:30:02.070Z,54.50
2018-07-24T08:30:35.168Z,52.70
2018-07-24T08:31:08.432Z,52.60
2018-07-24T08:31:41.477Z,52.60
2018-07-24T08:32:15.308Z,53.90
2018-07-24T08:32:48.348Z,53.70
2018-07-24T08:33:22.154Z,52.10
2018-07-24T08:33:55.187Z,52.00
2018-07-24T08:34:28.219Z,53.60
2018-07-24T08:35:01.262Z,52.40
2018-07-24T08:35:34.307Z,53.00
2018-07-24T08:36:07.575Z,56.10
2018-07-24T08:36:40.639Z,57.40
2018-07-24T08:37:14.403Z,57.00
2018-07-24T08:37:47.004Z,57.00
2018-07-24T08:38:19.516Z,52.30
2018-07-24T08:38:52.044Z,52.80
2018-07-24T08:39:24.555Z,52.30
2018-07-24T08:39:57.528Z,52.10
2018-07-24T08:40:30.567Z,53.10
2018-07-24T08:41:03.612Z,53.50
2018-07-24T08:41:36.692Z,55.30
2018-07-24T08:42:09.747Z,56.10
2018-07-24T08:42:42.785Z,55.00
2018-07-24T08:43:16.592Z,56.10
2018-07-24T08:43:49.649Z,56.00
2018-07-24T08:44:23.464Z,57.30
2018-07-24T08:44:56.523Z,57.30
2018-07-24T08:45:30.382Z,55.40
2018-07-24T08:46:03.442Z,55.50
2018-07-24T08:46:36.505Z,54.50
2018-07-24T08:47:09.680Z,52.80
2018-07-24T08:47:42.735Z,51.70
2018-07-24T08:48:15.766Z,53.10
2018-07-24T08:48:48.833Z,54.20
2018-07-24T08:49:21.870Z,56.30
2018-07-24T08:49:54.900Z,56.30
2018-07-24T08:50:27.945Z,58.00
2018-07-24T08:51:00.984Z,53.90
2018-07-24T08:51:34.028Z,52.50
2018-07-24T08:52:07.875Z,51.10
2018-07-24T08:52:41.013Z,51.10
2018-07-24T08:53:14.165Z,51.50
2018-07-24T08:53:47.502Z,52.90
2018-07-24T08:54:20.187Z,52.10
2018-07-24T08:54:53.455Z,51.40
2018-07-24T08:55:26.304Z,52.10
2018-07-24T08:55:59.206Z,52.40
2018-07-24T08:56:32.258Z,51.60
2018-07-24T08:57:05.325Z,52.70
2018-07-24T08:57:38.426Z,55.30
2018-07-24T08:58:12.237Z,50.80
2018-07-24T08:58:45.280Z,50.80
2018-07-24T08:59:18.335Z,50.50
2018-07-24T08:59:52.132Z,52.00
2018-07-24T09:00:25.176Z,52.00
2018-07-24T09:00:58.220Z,51.90
2018-07-24T09:01:31.317Z,51.60
2018-07-24T09:02:04.372Z,53.50
2018-07-24T09:02:37.425Z,50.30
2018-07-24T09:03:10.463Z,50.80
2018-07-24T09:03:43.527Z,52.30
2018-07-24T09:04:16.626Z,54.90
2018-07-24T09:04:49.596Z,54.00
2018-07-24T09:05:23.396Z,48.90
2018-07-24T09:05:56.428Z,48.90
2018-07-24T09:06:29.485Z,49.40
2018-07-24T09:07:02.549Z,49.50
2018-07-24T09:07:35.587Z,50.10
2018-07-24T09:08:09.409Z,50.40
2018-07-24T09:08:43.229Z,52.60
2018-07-24T09:09:16.260Z,52.40
2018-07-24T09:09:49.520Z,54.00
2018-07-24T09:10:22.634Z,51.90
2018-07-24T09:10:55.606Z,50.80
2018-07-24T09:11:28.636Z,50.90
2018-07-24T09:12:01.711Z,49.90
2018-07-24T09:12:34.740Z,49.30
2018-07-24T09:13:07.786Z,48.90
2018-07-24T09:13:40.829Z,52.10
2018-07-24T09:14:13.875Z,49.10
2018-07-24T09:14:46.921Z,50.20
2018-07-24T09:15:19.948Z,51.10
2018-07-24T09:15:52.982Z,49.10
2018-07-24T09:16:26.013Z,52.10
2018-07-24T09:16:59.056Z,50.40
2018-07-24T09:17:32.100Z,50.60
2018-07-24T09:18:05.144Z,48.90
2018-07-24T09:18:38.954Z,47.60
2018-07-24T09:19:11.988Z,47.70
2018-07-24T09:19:45.030Z,51.70
2018-07-24T09:20:18.061Z,53.60
2018-07-24T09:20:51.896Z,49.90
2018-07-24T09:21:25.654Z,49.90
2018-07-24T09:21:59.480Z,51.00
2018-07-24T09:22:32.514Z,51.10
2018-07-24T09:23:05.547Z,50.40
2018-07-24T09:23:38.614Z,50.60
2018-07-24T09:24:11.648Z,53.20
2018-07-24T09:24:44.844Z,52.90
2018-07-24T09:25:17.880Z,48.70
2018-07-24T09:25:51.175Z,50.20
2018-07-24T09:26:24.203Z,53.60
2018-07-24T09:26:57.325Z,51.00
2018-07-24T09:27:30.288Z,51.90
2018-07-24T09:28:03.320Z,53.30
2018-07-24T09:28:36.365Z,49.20
2018-07-24T09:29:09.421Z,50.30
2018-07-24T09:29:42.468Z,50.00
2018-07-24T09:30:15.505Z,50.60
2018-07-24T09:30:48.528Z,48.40
2018-07-24T09:31:21.559Z,50.20
2018-07-24T09:31:54.631Z,49.30
2018-07-24T09:32:27.649Z,51.20
2018-07-24T09:33:00.682Z,49.70
2018-07-24T09:33:33.729Z,47.10
2018-07-24T09:34:06.788Z,50.00
2018-07-24T09:34:39.813Z,50.40
2018-07-24T09:35:12.845Z,49.70
2018-07-24T09:35:45.918Z,49.40
2018-07-24T09:36:18.940Z,49.50
2018-07-24T09:36:51.978Z,50.00
2018-07-24T09:37:25.047Z,50.80
2018-07-24T09:37:58.108Z,48.00
2018-07-24T09:38:31.156Z,48.20
2018-07-24T09:39:04.183Z,46.20
2018-07-24T09:39:37.224Z,48.60
2018-07-24T09:40:10.270Z,50.40
2018-07-24T09:40:43.294Z,46.30
2018-07-24T09:41:16.324Z,51.40
2018-07-24T09:41:49.385Z,46.70
2018-07-24T09:42:22.416Z,47.30
2018-07-24T09:42:55.467Z,48.40
2018-07-24T09:43:28.507Z,47.40
2018-07-24T09:44:01.550Z,47.30
2018-07-24T09:44:34.667Z,48.70
2018-07-24T09:45:07.689Z,50.00
2018-07-24T09:45:40.730Z,49.50
2018-07-24T09:46:13.760Z,50.60
2018-07-24T09:46:46.787Z,46.90
2018-07-24T09:47:19.941Z,47.10
2018-07-24T09:47:53.046Z,45.70
2018-07-24T09:48:26.035Z,49.30
2018-07-24T09:48:59.864Z,48.90
2018-07-24T09:49:32.893Z,49.00
2018-07-24T09:50:05.946Z,49.60
2018-07-24T09:50:39.116Z,51.80
2018-07-24T09:51:11.996Z,51.40
2018-07-24T09:51:45.145Z,47.20
2018-07-24T09:52:18.168Z,49.00
2018-07-24T09:52:51.208Z,46.70
2018-07-24T09:53:24.240Z,46.00
2018-07-24T09:53:57.279Z,48.20
2018-07-24T09:54:30.344Z,47.90
2018-07-24T09:55:03.385Z,45.40
2018-07-24T09:55:36.428Z,46.00
2018-07-24T09:56:10.241Z,48.50
2018-07-24T09:56:43.272Z,48.40
2018-07-24T09:57:16.332Z,47.60
2018-07-24T09:57:49.352Z,46.90
2018-07-24T09:58:22.400Z,47.70
2018-07-24T09:58:55.445Z,44.60
2018-07-24T09:59:28.505Z,45.40
2018-07-24T10:00:01.552Z,46.70
2018-07-24T10:00:35.355Z,48.30
2018-07-24T10:01:08.405Z,48.40
2018-07-24T10:01:41.463Z,47.30
2018-07-24T10:02:14.648Z,49.70
2018-07-24T10:02:47.685Z,50.20
2018-07-24T10:03:20.725Z,49.40
2018-07-24T10:03:53.776Z,47.20
2018-07-24T10:04:26.808Z,47.50
2018-07-24T10:04:59.848Z,48.20
2018-07-24T10:05:32.875Z,50.90
2018-07-24T10:06:05.909Z,49.70
2018-07-24T10:06:38.952Z,49.60
2018-07-24T10:07:11.983Z,49.80
2018-07-24T10:07:45.023Z,50.90
2018-07-24T10:08:18.056Z,46.70
2018-07-24T10:08:51.208Z,47.50
2018-07-24T10:09:24.241Z,49.20
2018-07-24T10:09:57.296Z,45.80
2018-07-24T10:10:30.336Z,48.60
2018-07-24T10:11:03.438Z,46.40
2018-07-24T10:11:36.471Z,47.40
2018-07-24T10:12:09.580Z,48.30
2018-07-24T10:12:42.589Z,48.10
2018-07-24T10:13:15.700Z,46.40
2018-07-24T10:13:48.644Z,48.30
2018-07-24T10:14:22.442Z,48.90
2018-07-24T10:14:55.480Z,48.80
2018-07-24T10:15:28.523Z,46.70
2018-07-24T10:16:01.565Z,47.70
2018-07-24T10:16:34.635Z,46.20
2018-07-24T10:17:07.638Z,45.50
2018-07-24T10:17:40.668Z,45.80
2018-07-24T10:18:13.717Z,46.50
2018-07-24T10:18:46.830Z,46.40
2018-07-24T10:19:20.578Z,46.10
2018-07-24T10:19:53.732Z,46.30
2018-07-24T10:20:26.789Z,47.10
2018-07-24T10:20:59.811Z,45.60
2018-07-24T10:21:32.840Z,46.50
2018-07-24T10:22:05.894Z,44.70
2018-07-24T10:22:38.948Z,45.50
2018-07-24T10:23:12.002Z,44.90
2018-07-24T10:23:45.020Z,47.30
2018-07-24T10:24:18.133Z,44.70
2018-07-24T10:24:51.124Z,45.70
2018-07-24T10:25:24.152Z,47.40
2018-07-24T10:25:57.188Z,46.30
2018-07-24T10:26:30.240Z,46.00
2018-07-24T10:27:04.041Z,45.10
2018-07-24T10:27:37.088Z,44.90
2018-07-24T10:28:10.137Z,47.20
2018-07-24T10:28:43.965Z,45.60
2018-07-24T10:29:17.007Z,45.90
2018-07-24T10:29:50.812Z,46.30
2018-07-24T10:30:23.857Z,46.00
2018-07-24T10:30:56.928Z,45.80
2018-07-24T10:31:29.964Z,44.40
2018-07-24T10:32:03.010Z,46.10
2018-07-24T10:32:36.068Z,42.60
2018-07-24T10:33:09.336Z,43.40
2018-07-24T10:33:42.400Z,46.20
2018-07-24T10:34:15.436Z,43.80
2018-07-24T10:34:48.476Z,44.10
2018-07-24T10:35:22.272Z,47.50
2018-07-24T10:35:56.076Z,47.50
2018-07-24T10:36:29.194Z,47.50
2018-07-24T10:37:02.185Z,46.50
2018-07-24T10:37:35.224Z,44.80
2018-07-24T10:38:08.264Z,44.70
2018-07-24T10:38:41.310Z,44.10
2018-07-24T10:39:14.352Z,48.30
2018-07-24T10:39:47.396Z,47.20
2018-07-24T10:40:20.428Z,44.50
2018-07-24T10:40:53.481Z,44.20
2018-07-24T10:41:26.526Z,47.90
2018-07-24T10:41:59.563Z,46.90
2018-07-24T10:42:32.604Z,44.10
2018-07-24T10:43:05.693Z,44.60
2018-07-24T10:43:38.752Z,46.40
2018-07-24T10:44:11.787Z,45.10
2018-07-24T10:44:44.908Z,47.90
2018-07-24T10:45:17.945Z,44.60
2018-07-24T10:45:50.985Z,48.50
2018-07-24T10:46:24.033Z,45.20
2018-07-24T10:46:57.064Z,44.70
2018-07-24T10:47:30.129Z,44.90
2018-07-24T10:48:03.980Z,48.10
2018-07-24T10:48:37.146Z,48.00
2018-07-24T10:49:10.195Z,45.00
2018-07-24T10:49:43.235Z,43.60
2018-07-24T10:50:16.275Z,42.80
2018-07-24T10:50:49.347Z,42.60
2018-07-24T10:51:22.371Z,45.70
2018-07-24T10:51:56.186Z,45.00
2018-07-24T10:52:30.017Z,43.50
2018-07-24T10:53:03.072Z,43.60
2018-07-24T10:53:36.104Z,45.00
2018-07-24T10:54:09.148Z,42.30
2018-07-24T10:54:42.208Z,43.00
2018-07-24T10:55:15.268Z,43.60
2018-07-24T10:55:48.308Z,44.60
2018-07-24T10:56:21.361Z,43.80
2018-07-24T10:56:54.428Z,45.10
2018-07-24T10:57:27.486Z,42.80
2018-07-24T10:58:00.545Z,46.10
2018-07-24T10:58:33.580Z,41.50
2018-07-24T10:59:06.607Z,43.80
2018-07-24T10:59:39.649Z,42.10
2018-07-24T11:00:12.707Z,42.20
2018-07-24T11:00:45.760Z,44.30
2018-07-24T11:01:18.828Z,44.00
2018-07-24T11:01:51.871Z,41.50
2018-07-24T11:02:24.912Z,42.70
2018-07-24T11:02:58.746Z,41.70
2018-07-24T11:03:31.766Z,41.60
2018-07-24T11:04:04.836Z,41.20
2018-07-24T11:04:37.880Z,42.50
2018-07-24T11:05:10.945Z,42.20
2018-07-24T11:05:43.971Z,43.40
2018-07-24T11:06:17.772Z,42.70
2018-07-24T11:06:51.577Z,43.20
2018-07-24T11:07:24.615Z,43.20
2018-07-24T11:07:57.675Z,42.90
2018-07-24T11:08:30.717Z,41.70
2018-07-24T11:09:03.781Z,41.90
2018-07-24T11:09:36.804Z,41.60
2018-07-24T11:10:09.842Z,42.20
2018-07-24T11:10:42.895Z,42.80
2018-07-24T11:11:16.716Z,43.60
2018-07-24T11:11:49.744Z,43.70
2018-07-24T11:12:22.781Z,41.60
2018-07-24T11:12:55.860Z,43.90
2018-07-24T11:13:28.938Z,41.30
2018-07-24T11:14:01.978Z,46.30
2018-07-24T11:14:35.032Z,42.60
2018-07-24T11:15:08.824Z,43.30
2018-07-24T11:15:42.624Z,42.20
2018-07-24T11:16:15.674Z,42.00
2018-07-24T11:16:48.715Z,42.80
2018-07-24T11:17:21.772Z,43.00
2018-07-24T11:17:54.830Z,43.80
2018-07-24T11:18:27.877Z,42.00
2018-07-24T11:19:00.931Z,44.60
2018-07-24T11:19:34.000Z,40.30
2018-07-24T11:20:07.061Z,42.00
2018-07-24T11:20:40.866Z,44.20
2018-07-24T11:21:13.923Z,43.90
2018-07-24T11:21:46.969Z,42.20
2018-07-24T11:22:20.067Z,45.70
2018-07-24T11:22:54.106Z,41.40
2018-07-24T11:23:26.925Z,41.30
2018-07-24T11:24:00.713Z,44.90
2018-07-24T11:24:33.767Z,44.70
2018-07-24T11:25:06.832Z,42.80
2018-07-24T11:25:40.650Z,42.10
2018-07-24T11:26:14.463Z,41.00
2018-07-24T11:26:47.484Z,40.90
2018-07-24T11:27:20.537Z,41.20
2018-07-24T11:27:53.602Z,43.60
2018-07-24T11:28:26.681Z,41.40
2018-07-24T11:28:59.697Z,42.00
2018-07-24T11:29:33.501Z,42.70
2018-07-24T11:30:07.297Z,43.50
2018-07-24T11:30:40.344Z,43.20
2018-07-24T11:31:13.396Z,41.80
2018-07-24T11:31:46.453Z,40.20
2018-07-24T11:32:19.497Z,41.30
2018-07-24T11:32:52.617Z,41.20
2018-07-24T11:33:26.459Z,43.30
2018-07-24T11:33:59.579Z,43.30
2018-07-24T11:34:32.640Z,43.40
2018-07-24T11:35:05.674Z,45.30
2018-07-24T11:35:38.831Z,42.70
2018-07-24T11:36:11.809Z,42.20
2018-07-24T11:36:44.783Z,40.70
2018-07-24T11:37:17.829Z,40.00
2018-07-24T11:37:50.874Z,44.80
2018-07-24T11:38:23.912Z,44.80
2018-07-24T11:38:56.995Z,45.70
2018-07-24T11:39:30.012Z,41.00
2018-07-24T11:40:03.091Z,43.30
2018-07-24T11:40:36.124Z,46.00
2018-07-24T11:41:09.963Z,42.00
2018-07-24T11:41:43.052Z,42.20
2018-07-24T11:42:16.104Z,43.70
2018-07-24T11:42:49.230Z,44.10
2018-07-24T11:43:22.256Z,46.90
2018-07-24T11:43:55.333Z,42.00
2018-07-24T11:44:29.096Z,41.00
2018-07-24T11:45:02.288Z,40.90
2018-07-24T11:45:36.128Z,41.60
2018-07-24T11:46:09.156Z,41.50
2018-07-24T11:46:42.953Z,41.40
2018-07-24T11:47:15.992Z,41.40
2018-07-24T11:47:49.816Z,42.80
2018-07-24T11:48:22.869Z,42.70
2018-07-24T11:48:55.900Z,41.40
2018-07-24T11:49:28.937Z,42.10
2018-07-24T11:50:02.104Z,42.40
2018-07-24T11:50:35.149Z,44.20
2018-07-24T11:51:08.205Z,42.30
2018-07-24T11:51:41.261Z,44.20
2018-07-24T11:52:14.362Z,42.00
2018-07-24T11:52:47.404Z,44.50
2018-07-24T11:53:20.471Z,46.50
2018-07-24T11:53:53.515Z,46.30
2018-07-24T11:54:27.317Z,45.40
2018-07-24T11:55:01.131Z,42.90
2018-07-24T11:55:34.165Z,42.60
2018-07-24T11:56:07.208Z,44.90
2018-07-24T11:56:40.260Z,45.50
2018-07-24T11:57:13.279Z,42.40
2018-07-24T11:57:46.395Z,46.00
2018-07-24T11:58:19.461Z,43.50
2018-07-24T11:58:52.504Z,43.90
2018-07-24T11:59:25.544Z,42.20
2018-07-24T11:59:58.587Z,41.70
2018-07-24T12:00:32.384Z,42.00
2018-07-24T12:01:05.412Z,42.00
2018-07-24T12:01:38.469Z,43.70
2018-07-24T12:02:11.516Z,46.30
2018-07-24T12:02:44.573Z,45.70
2018-07-24T12:03:18.396Z,41.80
2018-07-24T12:03:51.440Z,41.80
2018-07-24T12:04:25.233Z,43.40
2018-07-24T12:04:58.274Z,43.20
2018-07-24T12:05:31.304Z,42.10
2018-07-24T12:06:04.403Z,40.30
2018-07-24T12:06:37.471Z,40.40
2018-07-24T12:07:10.560Z,41.10
2018-07-24T12:07:43.623Z,44.00
2018-07-24T12:08:16.672Z,43.70
2018-07-24T12:08:50.484Z,41.40
2018-07-24T12:09:23.541Z,41.30
2018-07-24T12:09:57.332Z,40.90
2018-07-24T12:10:31.132Z,40.70
2018-07-24T12:11:04.208Z,40.70
2018-07-24T12:11:37.238Z,42.70
2018-07-24T12:12:11.030Z,39.90
2018-07-24T12:12:44.096Z,39.60
2018-07-24T12:13:17.273Z,41.20
2018-07-24T12:13:50.309Z,40.90
2018-07-24T12:14:23.352Z,42.60
2018-07-24T12:14:56.645Z,43.90
2018-07-24T12:15:29.612Z,42.60
2018-07-24T12:16:03.425Z,40.60
2018-07-24T12:16:36.472Z,40.40
2018-07-24T12:17:09.509Z,41.10
2018-07-24T12:17:42.551Z,40.40
2018-07-24T12:18:15.579Z,38.70
2018-07-24T12:18:48.651Z,38.90
2018-07-24T12:19:21.701Z,38.30
2018-07-24T12:19:54.736Z,43.80
2018-07-24T12:20:28.540Z,45.40
2018-07-24T12:21:01.574Z,45.20
2018-07-24T12:21:34.661Z,43.80
2018-07-24T12:22:07.732Z,43.90
2018-07-24T12:22:41.501Z,41.90
2018-07-24T12:23:14.564Z,42.20
2018-07-24T12:23:47.621Z,39.10
2018-07-24T12:24:20.662Z,42.40
2018-07-24T12:24:53.726Z,42.70
2018-07-24T12:25:26.790Z,41.60
2018-07-24T12:25:59.830Z,45.10
2018-07-24T12:26:32.907Z,40.70
2018-07-24T12:27:06.014Z,43.60
2018-07-24T12:27:39.005Z,40.90
2018-07-24T12:28:12.815Z,40.70
2018-07-24T12:28:45.857Z,40.70
2018-07-24T12:29:21.658Z,42.20
2018-07-24T12:29:54.724Z,44.20
2018-07-24T12:30:27.772Z,41.40
2018-07-24T12:31:01.586Z,40.10
2018-07-24T12:31:34.627Z,40.00
2018-07-24T12:32:07.767Z,39.60
2018-07-24T12:32:40.800Z,39.50
2018-07-24T12:33:13.846Z,41.90
2018-07-24T12:33:46.928Z,40.90
2018-07-24T12:34:19.974Z,40.00
2018-07-24T12:34:53.020Z,39.90
2018-07-24T12:35:26.049Z,40.20
2018-07-24T12:35:59.151Z,40.60
2018-07-24T12:36:32.118Z,40.30
2018-07-24T12:37:05.932Z,39.00
2018-07-24T12:37:39.005Z,39.00
2018-07-24T12:38:12.057Z,39.20
2018-07-24T12:38:45.865Z,39.30
2018-07-24T12:39:18.906Z,39.20
2018-07-24T12:39:51.935Z,39.20
2018-07-24T12:40:24.989Z,39.50
2018-07-24T12:40:58.774Z,38.70
2018-07-24T12:41:31.821Z,38.70
2018-07-24T12:42:04.904Z,38.80
2018-07-24T12:42:37.944Z,39.20
2018-07-24T12:43:10.988Z,37.90
2018-07-24T12:43:44.069Z,37.90
2018-07-24T12:44:17.264Z,41.80
2018-07-24T12:44:50.303Z,40.50
2018-07-24T12:45:23.386Z,42.70
2018-07-24T12:45:56.411Z,40.20
2018-07-24T12:46:29.565Z,40.60
2018-07-24T12:47:02.647Z,40.10
2018-07-24T12:47:35.684Z,40.00
2018-07-24T12:48:09.545Z,41.60
2018-07-24T12:48:42.592Z,41.50
2018-07-24T12:49:15.623Z,39.10
2018-07-24T12:49:48.676Z,41.20
2018-07-24T12:50:21.764Z,39.30
2018-07-24T12:50:55.573Z,39.10
2018-07-24T12:51:28.625Z,39.10
2018-07-24T12:52:02.450Z,40.00
2018-07-24T12:52:35.562Z,40.00
2018-07-24T12:53:08.508Z,39.60
2018-07-24T12:53:41.577Z,39.50
2018-07-24T12:54:14.633Z,39.40
2018-07-24T12:54:47.684Z,39.30
2018-07-24T12:55:20.719Z,40.90
2018-07-24T12:55:53.771Z,40.80
2018-07-24T12:56:26.822Z,39.50
2018-07-24T12:56:59.870Z,39.80
2018-07-24T12:57:32.916Z,40.50
2018-07-24T12:58:05.972Z,39.60
2018-07-24T12:58:39.036Z,40.30
2018-07-24T12:59:12.104Z,39.60
2018-07-24T12:59:45.154Z,38.50
2018-07-24T13:00:18.201Z,39.30
2018-07-24T13:00:51.273Z,39.30
2018-07-24T13:01:24.316Z,40.10
2018-07-24T13:01:57.363Z,38.90
2018-07-24T13:02:30.410Z,38.60
2018-07-24T13:03:03.447Z,38.50
2018-07-24T13:03:36.486Z,38.90
2018-07-24T13:04:09.638Z,38.70
2018-07-24T13:04:42.585Z,38.70
2018-07-24T13:05:15.628Z,39.60
2018-07-24T13:05:48.668Z,39.30
2018-07-24T13:06:21.724Z,38.70
2018-07-24T13:06:54.744Z,39.20
2018-07-24T13:07:27.805Z,42.80
2018-07-24T13:08:00.827Z,42.70
2018-07-24T13:08:33.876Z,41.30
2018-07-24T13:09:06.975Z,41.80
2018-07-24T13:09:40.005Z,40.70
2018-07-24T13:10:13.114Z,40.30
2018-07-24T13:10:46.128Z,40.90
2018-07-24T13:11:19.160Z,40.50
2018-07-24T13:11:52.183Z,40.50
2018-07-24T13:12:25.227Z,40.70
2018-07-24T13:12:58.315Z,40.00
2018-07-24T13:13:31.356Z,40.20
2018-07-24T13:14:04.415Z,40.00
2018-07-24T13:14:38.225Z,39.90
2018-07-24T13:15:11.262Z,39.90
2018-07-24T13:15:44.304Z,41.00
2018-07-24T13:16:17.381Z,39.80
2018-07-24T13:16:50.413Z,40.10
2018-07-24T13:17:24.214Z,39.80
2018-07-24T13:17:58.039Z,40.50
2018-07-24T13:18:31.078Z,40.40
2018-07-24T13:19:04.141Z,40.00
2018-07-24T13:19:37.982Z,39.70
2018-07-24T13:20:11.000Z,39.60
2018-07-24T13:20:44.050Z,40.20
2018-07-24T13:21:17.123Z,39.90
2018-07-24T13:21:50.193Z,40.40
2018-07-24T13:22:23.245Z,39.80
2018-07-24T13:22:56.306Z,39.60
2018-07-24T13:23:28.888Z,40.00
2018-07-24T13:24:01.849Z,41.00
2018-07-24T13:24:34.915Z,40.60
2018-07-24T13:25:08.707Z,40.60
2018-07-24T13:25:41.755Z,40.50
2018-07-24T13:26:14.853Z,39.80
2018-07-24T13:26:48.660Z,39.20
2018-07-24T13:27:21.712Z,39.20
2018-07-24T13:27:54.740Z,42.00
2018-07-24T13:28:27.355Z,40.00
2018-07-24T13:28:59.889Z,39.40
2018-07-24T13:29:32.405Z,41.10
2018-07-24T13:30:04.931Z,39.00
2018-07-24T13:30:37.884Z,38.60
2018-07-24T13:31:10.951Z,39.40
2018-07-24T13:31:44.258Z,39.60
2018-07-24T13:32:17.240Z,41.00
2018-07-24T13:32:50.290Z,42.00
2018-07-24T13:33:22.875Z,40.50
2018-07-24T13:33:55.835Z,40.20
2018-07-24T13:34:29.123Z,40.20
2018-07-24T13:35:02.372Z,39.80
2018-07-24T13:35:34.965Z,41.40
2018-07-24T13:36:07.929Z,42.90
2018-07-24T13:36:40.535Z,42.70
2018-07-24T13:37:13.712Z,44.00
2018-07-24T13:37:46.794Z,41.20
2018-07-24T13:38:20.052Z,40.60
2018-07-24T13:38:53.863Z,41.10
2018-07-24T13:39:26.937Z,41.00
2018-07-24T13:39:59.984Z,40.80
2018-07-24T13:40:33.815Z,41.70
2018-07-24T13:41:06.420Z,41.60
2018-07-24T13:41:40.174Z,40.90
2018-07-24T13:42:13.985Z,41.00
2018-07-24T13:42:47.012Z,41.00
2018-07-24T13:43:20.065Z,41.30
2018-07-24T13:43:53.156Z,42.20
2018-07-24T13:44:26.286Z,42.90
2018-07-24T13:44:59.661Z,41.50
2018-07-24T13:45:32.591Z,41.40
2018-07-24T13:46:06.427Z,41.00
2018-07-24T13:46:39.431Z,41.00
2018-07-24T13:47:12.496Z,41.00
2018-07-24T13:47:45.569Z,42.20
2018-07-24T13:48:18.172Z,40.90
2018-07-24T13:48:51.124Z,41.80
2018-07-24T13:49:23.740Z,42.90
2018-07-24T13:49:56.713Z,43.30
2018-07-24T13:50:29.752Z,42.00
2018-07-24T13:51:03.573Z,40.80
2018-07-24T13:51:36.587Z,40.70
2018-07-24T13:52:09.255Z,41.30
2018-07-24T13:52:42.155Z,40.40
2018-07-24T13:53:14.763Z,39.80
2018-07-24T13:53:47.271Z,41.40
2018-07-24T13:54:20.583Z,40.20
2018-07-24T13:54:53.548Z,40.30
2018-07-24T13:55:26.919Z,41.00
2018-07-24T13:55:59.445Z,41.00
2018-07-24T13:56:31.958Z,40.90
2018-07-24T13:57:04.498Z,40.60
2018-07-24T13:57:38.227Z,40.90
2018-07-24T13:58:11.281Z,40.80
2018-07-24T13:58:44.345Z,40.60
2018-07-24T13:59:17.403Z,40.40
2018-07-24T13:59:50.121Z,41.30
2018-07-24T14:00:22.617Z,41.40
2018-07-24T14:00:55.592Z,42.50
2018-07-24T14:01:28.186Z,40.40
2018-07-24T14:02:00.711Z,42.00
2018-07-24T14:02:33.236Z,40.70
2018-07-24T14:03:06.203Z,41.70
2018-07-24T14:03:39.272Z,43.50
2018-07-24T14:04:12.285Z,43.50
2018-07-24T14:04:45.341Z,42.80
2018-07-24T14:05:18.384Z,40.60
2018-07-24T14:05:52.214Z,40.50
2018-07-24T14:06:25.419Z,40.40
2018-07-24T14:06:58.504Z,41.40
2018-07-24T14:07:31.525Z,40.70
2018-07-24T14:08:04.564Z,40.60
2018-07-24T14:08:37.710Z,42.70
2018-07-24T14:09:10.751Z,42.10
2018-07-24T14:09:43.813Z,41.30
2018-07-24T14:10:17.620Z,41.10
2018-07-24T14:10:50.659Z,41.10
2018-07-24T14:11:23.739Z,41.20
2018-07-24T14:11:56.790Z,41.80
2018-07-24T14:12:29.864Z,41.70
2018-07-24T14:13:02.928Z,41.30
2018-07-24T14:13:35.956Z,41.60
2018-07-24T14:14:09.763Z,41.50
2018-07-24T14:14:42.822Z,41.60
2018-07-24T14:15:16.644Z,41.90